VLV weather

Dr. Antonio Nicolás Briceño Airport
Valera, Trujillo, Venezuela

Public forecast

Using degrees Celsius for public forecast. Weather courtesy of forecast.io.

METAR (pilot weather report)

Report is more than 6 hours old.

Retrieved 2018/10/31 01:00 UTC (4 months ago):

SVVL 310100Z /////KT 9999 SCT016 27/23 Q1012

TAF (pilot weather forecast)

Forecast is more than 12 hours old.

Closest forecast is Barquisimeto International Airport, 83.9 nm (155.4 km) ENE. Retrieved 2019/02/14 18:30 UTC (4 days ago):

TAF TAF SVBM 141600Z 1418/1518 07015KT 8000 VCFU FEW016 SCT100 TX33/1418Z TN21/1508Z BECMG 1422/1502 09006KT FEW020